sensor_id;sensor_type;location;lat;lon;timestamp;pressure;altitude;pressure_sealevel;temperature;humidity
19672;BME280;9983;51.114;13.788;2022-12-18T00:00:48;100905.09;;;-6.00;81.34
19672;BME280;9983;51.114;13.788;2022-12-18T00:05:49;100907.44;;;-6.27;81.71
19672;BME280;9983;51.114;13.788;2022-12-18T00:10:50;100904.31;;;-6.04;81.92
19672;BME280;9983;51.114;13.788;2022-12-18T00:15:50;100916.97;;;-6.24;81.53
19672;BME280;9983;51.114;13.788;2022-12-18T00:20:50;100928.13;;;-6.18;80.96
19672;BME280;9983;51.114;13.788;2022-12-18T00:25:51;100941.66;;;-6.00;80.40
19672;BME280;9983;51.114;13.788;2022-12-18T00:31:02;100943.13;;;-6.69;83.38
19672;BME280;9983;51.114;13.788;2022-12-18T00:36:11;100945.91;;;-6.76;84.14
19672;BME280;9983;51.114;13.788;2022-12-18T00:41:13;100944.69;;;-7.52;82.63
19672;BME280;9983;51.114;13.788;2022-12-18T00:46:34;100963.59;;;-7.38;84.76
19672;BME280;9983;51.114;13.788;2022-12-18T00:51:34;100970.50;;;-6.88;82.16
19672;BME280;9983;51.114;13.788;2022-12-18T00:56:36;100971.81;;;-6.69;81.26
19672;BME280;9983;51.114;13.788;2022-12-18T01:01:37;100972.94;;;-6.80;80.31
19672;BME280;9983;51.114;13.788;2022-12-18T01:06:37;100959.25;;;-7.39;82.38
19672;BME280;9983;51.114;13.788;2022-12-18T01:11:37;100964.47;;;-6.92;81.03
19672;BME280;9983;51.114;13.788;2022-12-18T01:16:37;100955.56;;;-6.81;79.70
19672;BME280;9983;51.114;13.788;2022-12-18T01:21:38;100965.66;;;-6.63;79.30
19672;BME280;9983;51.114;13.788;2022-12-18T01:26:38;100976.19;;;-6.69;78.63
19672;BME280;9983;51.114;13.788;2022-12-18T01:31:38;100981.53;;;-6.75;79.03
19672;BME280;9983;51.114;13.788;2022-12-18T01:36:39;100987.34;;;-7.07;80.96
19672;BME280;9983;51.114;13.788;2022-12-18T01:41:40;100981.00;;;-6.93;78.12
19672;BME280;9983;51.114;13.788;2022-12-18T01:46:59;100973.41;;;-7.05;78.66
19672;BME280;9983;51.114;13.788;2022-12-18T01:52:00;100987.97;;;-7.44;80.02
19672;BME280;9983;51.114;13.788;2022-12-18T01:57:00;100982.00;;;-7.00;78.91
19672;BME280;9983;51.114;13.788;2022-12-18T02:02:02;100986.19;;;-7.40;78.60
19672;BME280;9983;51.114;13.788;2022-12-18T02:12:44;100983.66;;;-6.96;77.52
19672;BME280;9983;51.114;13.788;2022-12-18T02:17:51;100983.19;;;-7.70;80.33
19672;BME280;9983;51.114;13.788;2022-12-18T02:23:16;100977.78;;;-7.57;80.12
19672;BME280;9983;51.114;13.788;2022-12-18T02:28:23;100989.63;;;-7.38;78.00
19672;BME280;9983;51.114;13.788;2022-12-18T02:33:27;100988.09;;;-7.51;79.25
19672;BME280;9983;51.114;13.788;2022-12-18T02:38:30;100988.94;;;-8.06;81.08
19672;BME280;9983;51.114;13.788;2022-12-18T02:43:31;100992.97;;;-7.30;77.50
19672;BME280;9983;51.114;13.788;2022-12-18T02:48:34;100994.88;;;-7.41;78.64
19672;BME280;9983;51.114;13.788;2022-12-18T02:53:53;100997.91;;;-7.15;79.37
19672;BME280;9983;51.114;13.788;2022-12-18T02:59:02;100993.00;;;-7.33;79.88
19672;BME280;9983;51.114;13.788;2022-12-18T03:04:09;100994.69;;;-7.29;80.38
19672;BME280;9983;51.114;13.788;2022-12-18T03:09:19;100994.47;;;-7.17;80.52
19672;BME280;9983;51.114;13.788;2022-12-18T03:14:22;100995.56;;;-6.81;79.32
19672;BME280;9983;51.114;13.788;2022-12-18T03:19:26;100995.53;;;-6.79;79.75
19672;BME280;9983;51.114;13.788;2022-12-18T03:24:29;100996.31;;;-6.76;79.24
19672;BME280;9983;51.114;13.788;2022-12-18T03:29:35;100995.34;;;-6.70;78.99
19672;BME280;9983;51.114;13.788;2022-12-18T03:34:38;101008.06;;;-7.00;79.49
19672;BME280;9983;51.114;13.788;2022-12-18T03:39:39;101011.19;;;-6.79;78.72
19672;BME280;9983;51.114;13.788;2022-12-18T03:50:14;101012.84;;;-7.24;76.48
19672;BME280;9983;51.114;13.788;2022-12-18T03:55:17;101015.03;;;-7.02;76.68
19672;BME280;9983;51.114;13.788;2022-12-18T04:00:19;101020.38;;;-7.08;77.04
19672;BME280;9983;51.114;13.788;2022-12-18T04:05:22;101024.00;;;-7.18;78.22
19672;BME280;9983;51.114;13.788;2022-12-18T04:10:24;101016.06;;;-7.10;78.10
19672;BME280;9983;51.114;13.788;2022-12-18T04:15:24;101029.06;;;-7.09;79.43
19672;BME280;9983;51.114;13.788;2022-12-18T04:20:25;101031.97;;;-6.76;78.22
19672;BME280;9983;51.114;13.788;2022-12-18T04:25:25;101031.06;;;-6.74;78.55
19672;BME280;9983;51.114;13.788;2022-12-18T04:30:25;101039.34;;;-7.00;81.32
19672;BME280;9983;51.114;13.788;2022-12-18T04:35:25;101033.56;;;-7.17;80.37
19672;BME280;9983;51.114;13.788;2022-12-18T04:40:26;101039.38;;;-7.03;79.65
19672;BME280;9983;51.114;13.788;2022-12-18T04:45:26;101045.59;;;-7.10;81.29
19672;BME280;9983;51.114;13.788;2022-12-18T04:50:27;101051.50;;;-6.99;78.44
19672;BME280;9983;51.114;13.788;2022-12-18T04:55:27;101044.81;;;-7.15;79.12
19672;BME280;9983;51.114;13.788;2022-12-18T05:00:27;101034.69;;;-7.33;76.76
19672;BME280;9983;51.114;13.788;2022-12-18T05:05:28;101030.44;;;-7.37;76.93
19672;BME280;9983;51.114;13.788;2022-12-18T05:10:28;101051.75;;;-7.14;77.58
19672;BME280;9983;51.114;13.788;2022-12-18T05:15:30;101046.69;;;-7.23;78.09
19672;BME280;9983;51.114;13.788;2022-12-18T05:20:31;101048.00;;;-7.50;78.09
19672;BME280;9983;51.114;13.788;2022-12-18T05:25:31;101043.41;;;-7.36;76.84
19672;BME280;9983;51.114;13.788;2022-12-18T05:30:32;101048.53;;;-7.28;77.89
19672;BME280;9983;51.114;13.788;2022-12-18T05:35:32;101054.94;;;-7.50;77.24
19672;BME280;9983;51.114;13.788;2022-12-18T05:40:32;101051.16;;;-7.88;76.35
19672;BME280;9983;51.114;13.788;2022-12-18T05:45:36;101052.47;;;-7.59;74.85
19672;BME280;9983;51.114;13.788;2022-12-18T05:50:38;101049.13;;;-7.68;74.73
19672;BME280;9983;51.114;13.788;2022-12-18T05:55:40;101059.63;;;-7.74;76.47
19672;BME280;9983;51.114;13.788;2022-12-18T06:00:43;101063.00;;;-7.66;77.90
19672;BME280;9983;51.114;13.788;2022-12-18T06:05:44;101061.16;;;-7.60;77.06
19672;BME280;9983;51.114;13.788;2022-12-18T06:10:50;101060.91;;;-7.42;76.96
19672;BME280;9983;51.114;13.788;2022-12-18T06:15:51;101073.13;;;-7.47;76.62
19672;BME280;9983;51.114;13.788;2022-12-18T06:20:58;101074.81;;;-7.43;77.27
19672;BME280;9983;51.114;13.788;2022-12-18T06:26:03;101077.00;;;-7.76;78.36
19672;BME280;9983;51.114;13.788;2022-12-18T06:31:05;101076.78;;;-7.59;78.04
19672;BME280;9983;51.114;13.788;2022-12-18T06:36:11;101078.50;;;-7.56;77.90
19672;BME280;9983;51.114;13.788;2022-12-18T06:41:20;101078.94;;;-7.29;77.87
19672;BME280;9983;51.114;13.788;2022-12-18T06:46:20;101081.00;;;-7.52;79.00
19672;BME280;9983;51.114;13.788;2022-12-18T06:51:22;101101.53;;;-7.92;77.73
19672;BME280;9983;51.114;13.788;2022-12-18T06:56:23;101095.94;;;-7.61;77.17
19672;BME280;9983;51.114;13.788;2022-12-18T07:01:23;101101.28;;;-7.74;76.41
19672;BME280;9983;51.114;13.788;2022-12-18T07:06:25;101103.16;;;-7.82;76.82
19672;BME280;9983;51.114;13.788;2022-12-18T07:11:26;101123.94;;;-7.79;76.98
19672;BME280;9983;51.114;13.788;2022-12-18T07:16:26;101116.81;;;-7.64;77.43
19672;BME280;9983;51.114;13.788;2022-12-18T07:21:28;101113.34;;;-7.67;75.20
19672;BME280;9983;51.114;13.788;2022-12-18T07:26:28;101114.50;;;-7.87;76.86
19672;BME280;9983;51.114;13.788;2022-12-18T07:31:29;101111.38;;;-7.49;77.03
19672;BME280;9983;51.114;13.788;2022-12-18T07:36:29;101121.78;;;-7.49;76.85
19672;BME280;9983;51.114;13.788;2022-12-18T07:41:29;101146.03;;;-7.44;80.29
19672;BME280;9983;51.114;13.788;2022-12-18T07:46:29;101147.75;;;-7.43;77.86
19672;BME280;9983;51.114;13.788;2022-12-18T07:51:30;101145.13;;;-7.43;75.30
19672;BME280;9983;51.114;13.788;2022-12-18T07:56:30;101144.16;;;-7.36;77.35
19672;BME280;9983;51.114;13.788;2022-12-18T08:01:30;101138.91;;;-7.33;76.61
19672;BME280;9983;51.114;13.788;2022-12-18T08:06:31;101126.59;;;-7.22;77.05
19672;BME280;9983;51.114;13.788;2022-12-18T08:11:31;101119.81;;;-6.78;77.14
19672;BME280;9983;51.114;13.788;2022-12-18T08:16:31;101121.19;;;-6.59;82.67
19672;BME280;9983;51.114;13.788;2022-12-18T08:21:32;101108.91;;;-6.06;92.94
19672;BME280;9983;51.114;13.788;2022-12-18T08:26:32;101108.91;;;-5.68;98.11
19672;BME280;9983;51.114;13.788;2022-12-18T08:31:32;101120.81;;;-5.16;97.19
19672;BME280;9983;51.114;13.788;2022-12-18T08:36:33;101115.44;;;-4.41;97.85
19672;BME280;9983;51.114;13.788;2022-12-18T08:41:33;101118.66;;;-4.00;92.09
19672;BME280;9983;51.114;13.788;2022-12-18T08:46:36;101114.22;;;-3.97;88.42
19672;BME280;9983;51.114;13.788;2022-12-18T08:51:38;101104.28;;;-3.56;90.64
19672;BME280;9983;51.114;13.788;2022-12-18T08:56:38;101115.25;;;-3.16;91.97
19672;BME280;9983;51.114;13.788;2022-12-18T09:01:38;101118.09;;;-2.95;92.41
19672;BME280;9983;51.114;13.788;2022-12-18T09:06:39;101117.81;;;-2.86;92.15
19672;BME280;9983;51.114;13.788;2022-12-18T09:11:39;101119.56;;;-2.60;92.93
19672;BME280;9983;51.114;13.788;2022-12-18T09:16:40;101126.03;;;-2.19;91.14
19672;BME280;9983;51.114;13.788;2022-12-18T09:21:40;101138.03;;;-2.12;91.19
19672;BME280;9983;51.114;13.788;2022-12-18T09:26:40;101156.59;;;-1.69;90.11
19672;BME280;9983;51.114;13.788;2022-12-18T09:31:41;101155.22;;;-1.56;89.32
19672;BME280;9983;51.114;13.788;2022-12-18T09:36:41;101153.59;;;-1.13;88.21
19672;BME280;9983;51.114;13.788;2022-12-18T09:41:51;101145.13;;;-0.78;86.06
19672;BME280;9983;51.114;13.788;2022-12-18T09:47:12;101150.97;;;-0.49;83.93
19672;BME280;9983;51.114;13.788;2022-12-18T09:52:23;101140.56;;;-0.52;83.64
19672;BME280;9983;51.114;13.788;2022-12-18T09:57:25;101140.63;;;-0.33;82.94
19672;BME280;9983;51.114;13.788;2022-12-18T10:02:26;101128.44;;;-0.16;82.31
19672;BME280;9983;51.114;13.788;2022-12-18T10:12:52;101108.22;;;-0.15;82.00
19672;BME280;9983;51.114;13.788;2022-12-18T10:23:39;101097.84;;;0.00;81.12
19672;BME280;9983;51.114;13.788;2022-12-18T10:28:41;101079.94;;;0.46;79.11
19672;BME280;9983;51.114;13.788;2022-12-18T10:33:41;101079.19;;;0.61;77.35
19672;BME280;9983;51.114;13.788;2022-12-18T10:38:42;101069.06;;;0.52;76.55
19672;BME280;9983;51.114;13.788;2022-12-18T10:43:42;101058.88;;;0.99;74.19
19672;BME280;9983;51.114;13.788;2022-12-18T10:48:56;101058.75;;;1.87;72.04
19672;BME280;9983;51.114;13.788;2022-12-18T10:54:16;101046.81;;;1.80;70.46
19672;BME280;9983;51.114;13.788;2022-12-18T10:59:18;101063.38;;;1.83;69.31
19672;BME280;9983;51.114;13.788;2022-12-18T11:04:22;101052.78;;;2.16;67.55
19672;BME280;9983;51.114;13.788;2022-12-18T11:09:25;101057.66;;;2.24;66.56
19672;BME280;9983;51.114;13.788;2022-12-18T11:14:51;101044.00;;;2.32;66.78
19672;BME280;9983;51.114;13.788;2022-12-18T11:19:55;101033.88;;;1.91;66.95
19672;BME280;9983;51.114;13.788;2022-12-18T11:30:10;101024.19;;;2.39;65.91
19672;BME280;9983;51.114;13.788;2022-12-18T11:35:53;101028.97;;;2.48;63.96
19672;BME280;9983;51.114;13.788;2022-12-18T11:41:21;101021.69;;;2.36;63.67
19672;BME280;9983;51.114;13.788;2022-12-18T11:47:00;101017.94;;;2.71;63.16
19672;BME280;9983;51.114;13.788;2022-12-18T11:52:10;101018.28;;;2.65;62.44
19672;BME280;9983;51.114;13.788;2022-12-18T12:08:15;101037.59;;;1.87;64.84
19672;BME280;9983;51.114;13.788;2022-12-18T12:13:38;101043.06;;;1.84;63.53
19672;BME280;9983;51.114;13.788;2022-12-18T12:18:53;101050.47;;;2.26;62.63
19672;BME280;9983;51.114;13.788;2022-12-18T12:29:06;101046.22;;;2.23;61.79
19672;BME280;9983;51.114;13.788;2022-12-18T12:34:17;101058.63;;;1.90;61.89
19672;BME280;9983;51.114;13.788;2022-12-18T12:39:31;101087.59;;;1.41;64.23
19672;BME280;9983;51.114;13.788;2022-12-18T12:44:40;101076.84;;;1.44;63.37
19672;BME280;9983;51.114;13.788;2022-12-18T12:49:43;101079.03;;;1.36;64.00
19672;BME280;9983;51.114;13.788;2022-12-18T12:54:48;101063.81;;;1.24;64.45
19672;BME280;9983;51.114;13.788;2022-12-18T13:00:05;101062.19;;;0.86;65.85
19672;BME280;9983;51.114;13.788;2022-12-18T13:05:23;101050.84;;;1.01;64.82
19672;BME280;9983;51.114;13.788;2022-12-18T13:20:50;101058.03;;;0.44;67.11
19672;BME280;9983;51.114;13.788;2022-12-18T13:26:27;101054.13;;;0.15;68.18
19672;BME280;9983;51.114;13.788;2022-12-18T13:36:32;101059.09;;;0.03;68.53
19672;BME280;9983;51.114;13.788;2022-12-18T13:41:32;101041.56;;;0.02;69.76
19672;BME280;9983;51.114;13.788;2022-12-18T13:46:42;101055.69;;;0.19;68.42
19672;BME280;9983;51.114;13.788;2022-12-18T13:51:47;101049.41;;;0.22;69.12
19672;BME280;9983;51.114;13.788;2022-12-18T13:56:48;101037.19;;;0.00;68.93
19672;BME280;9983;51.114;13.788;2022-12-18T14:02:00;101049.53;;;-0.19;71.03
19672;BME280;9983;51.114;13.788;2022-12-18T14:07:10;101048.88;;;-0.44;71.75
19672;BME280;9983;51.114;13.788;2022-12-18T14:12:35;101051.19;;;-0.36;71.62
19672;BME280;9983;51.114;13.788;2022-12-18T14:18:02;101052.72;;;-0.51;72.59
19672;BME280;9983;51.114;13.788;2022-12-18T14:23:29;101026.88;;;-1.04;74.92
19672;BME280;9983;51.114;13.788;2022-12-18T14:28:31;101036.16;;;-1.17;76.66
19672;BME280;9983;51.114;13.788;2022-12-18T14:33:31;101026.44;;;-1.15;76.11
19672;BME280;9983;51.114;13.788;2022-12-18T14:38:36;101021.00;;;-1.32;77.09
19672;BME280;9983;51.114;13.788;2022-12-18T14:43:42;101009.78;;;-1.36;77.47
19672;BME280;9983;51.114;13.788;2022-12-18T14:48:46;101011.38;;;-1.54;78.09
19672;BME280;9983;51.114;13.788;2022-12-18T14:53:53;101027.25;;;-1.78;79.91
19672;BME280;9983;51.114;13.788;2022-12-18T14:59:01;101024.22;;;-1.68;79.22
19672;BME280;9983;51.114;13.788;2022-12-18T15:04:18;101038.63;;;-1.78;79.63
19672;BME280;9983;51.114;13.788;2022-12-18T15:09:26;101046.66;;;-1.82;79.85
19672;BME280;9983;51.114;13.788;2022-12-18T15:19:41;101035.06;;;-2.23;82.83
19672;BME280;9983;51.114;13.788;2022-12-18T15:24:41;101032.00;;;-2.35;83.59
19672;BME280;9983;51.114;13.788;2022-12-18T15:29:41;101026.59;;;-2.55;84.72
19672;BME280;9983;51.114;13.788;2022-12-18T15:34:42;101037.75;;;-2.25;83.49
19672;BME280;9983;51.114;13.788;2022-12-18T15:39:42;101021.69;;;-2.41;84.60
19672;BME280;9983;51.114;13.788;2022-12-18T15:44:43;101006.94;;;-2.68;86.16
19672;BME280;9983;51.114;13.788;2022-12-18T15:49:43;101013.88;;;-2.67;87.17
19672;BME280;9983;51.114;13.788;2022-12-18T15:54:43;101015.19;;;-2.54;86.20
19672;BME280;9983;51.114;13.788;2022-12-18T16:00:02;101014.97;;;-2.73;86.89
19672;BME280;9983;51.114;13.788;2022-12-18T16:05:05;101003.06;;;-2.58;86.23
19672;BME280;9983;51.114;13.788;2022-12-18T16:10:08;101003.59;;;-2.73;87.07
19672;BME280;9983;51.114;13.788;2022-12-18T16:15:12;100996.78;;;-2.77;87.30
19672;BME280;9983;51.114;13.788;2022-12-18T16:20:19;100987.75;;;-2.70;86.68
19672;BME280;9983;51.114;13.788;2022-12-18T16:25:26;100988.31;;;-2.85;87.94
19672;BME280;9983;51.114;13.788;2022-12-18T16:30:29;100986.28;;;-2.77;88.09
19672;BME280;9983;51.114;13.788;2022-12-18T16:35:30;100990.22;;;-2.90;87.91
19672;BME280;9983;51.114;13.788;2022-12-18T16:40:31;100984.66;;;-2.81;88.06
19672;BME280;9983;51.114;13.788;2022-12-18T16:45:32;100994.59;;;-2.66;87.16
19672;BME280;9983;51.114;13.788;2022-12-18T16:50:33;100975.78;;;-2.77;87.23
19672;BME280;9983;51.114;13.788;2022-12-18T16:55:33;100975.63;;;-2.74;88.04
19672;BME280;9983;51.114;13.788;2022-12-18T17:00:33;100983.66;;;-2.54;86.75
19672;BME280;9983;51.114;13.788;2022-12-18T17:05:33;100976.59;;;-2.52;85.97
19672;BME280;9983;51.114;13.788;2022-12-18T17:10:34;100980.34;;;-2.59;86.84
19672;BME280;9983;51.114;13.788;2022-12-18T17:15:35;100966.19;;;-2.55;86.31
19672;BME280;9983;51.114;13.788;2022-12-18T17:20:36;100959.31;;;-2.59;86.46
19672;BME280;9983;51.114;13.788;2022-12-18T17:25:38;100963.31;;;-2.72;87.22
19672;BME280;9983;51.114;13.788;2022-12-18T17:30:40;100951.81;;;-2.45;86.60
19672;BME280;9983;51.114;13.788;2022-12-18T17:35:40;100952.16;;;-2.54;87.18
19672;BME280;9983;51.114;13.788;2022-12-18T17:40:41;100959.69;;;-2.68;87.95
19672;BME280;9983;51.114;13.788;2022-12-18T17:45:41;100941.75;;;-2.57;87.29
19672;BME280;9983;51.114;13.788;2022-12-18T17:50:41;100948.41;;;-2.47;86.85
19672;BME280;9983;51.114;13.788;2022-12-18T17:55:41;100941.19;;;-2.42;86.47
19672;BME280;9983;51.114;13.788;2022-12-18T18:00:42;100943.47;;;-2.56;87.60
19672;BME280;9983;51.114;13.788;2022-12-18T18:05:42;100938.13;;;-2.53;87.42
19672;BME280;9983;51.114;13.788;2022-12-18T18:10:42;100932.19;;;-2.35;86.23
19672;BME280;9983;51.114;13.788;2022-12-18T18:15:43;100932.97;;;-2.56;87.57
19672;BME280;9983;51.114;13.788;2022-12-18T18:20:43;100937.44;;;-2.35;86.40
19672;BME280;9983;51.114;13.788;2022-12-18T18:25:43;100928.25;;;-2.46;86.78
19672;BME280;9983;51.114;13.788;2022-12-18T18:30:43;100935.00;;;-2.17;85.91
19672;BME280;9983;51.114;13.788;2022-12-18T18:35:44;100908.88;;;-2.20;85.35
19672;BME280;9983;51.114;13.788;2022-12-18T18:40:45;100899.72;;;-2.10;85.59
19672;BME280;9983;51.114;13.788;2022-12-18T18:45:45;100903.63;;;-2.20;85.36
19672;BME280;9983;51.114;13.788;2022-12-18T18:50:57;100903.25;;;-2.11;84.86
19672;BME280;9983;51.114;13.788;2022-12-18T18:55:58;100886.38;;;-2.27;85.03
19672;BME280;9983;51.114;13.788;2022-12-18T19:01:11;100881.25;;;-2.09;84.88
19672;BME280;9983;51.114;13.788;2022-12-18T19:06:23;100881.72;;;-1.99;84.52
19672;BME280;9983;51.114;13.788;2022-12-18T19:11:26;100872.59;;;-2.11;84.25
19672;BME280;9983;51.114;13.788;2022-12-18T19:16:45;100847.63;;;-2.22;85.46
19672;BME280;9983;51.114;13.788;2022-12-18T19:21:46;100840.66;;;-2.45;86.15
19672;BME280;9983;51.114;13.788;2022-12-18T19:26:46;100836.28;;;-2.01;84.95
19672;BME280;9983;51.114;13.788;2022-12-18T19:31:46;100840.56;;;-2.20;84.90
19672;BME280;9983;51.114;13.788;2022-12-18T19:36:46;100834.63;;;-2.04;83.85
19672;BME280;9983;51.114;13.788;2022-12-18T19:41:47;100816.81;;;-1.97;84.19
19672;BME280;9983;51.114;13.788;2022-12-18T19:46:50;100810.13;;;-2.04;84.62
19672;BME280;9983;51.114;13.788;2022-12-18T19:51:51;100801.06;;;-1.97;83.33
19672;BME280;9983;51.114;13.788;2022-12-18T19:56:51;100819.50;;;-1.77;82.86
19672;BME280;9983;51.114;13.788;2022-12-18T20:01:52;100806.91;;;-1.91;83.05
19672;BME280;9983;51.114;13.788;2022-12-18T20:06:55;100803.81;;;-2.00;82.86
19672;BME280;9983;51.114;13.788;2022-12-18T20:11:55;100799.50;;;-1.81;81.29
19672;BME280;9983;51.114;13.788;2022-12-18T20:16:55;100815.03;;;-1.55;80.41
19672;BME280;9983;51.114;13.788;2022-12-18T20:21:56;100815.16;;;-1.78;81.22
19672;BME280;9983;51.114;13.788;2022-12-18T20:26:57;100804.09;;;-1.86;81.13
19672;BME280;9983;51.114;13.788;2022-12-18T20:31:58;100804.91;;;-1.64;80.93
19672;BME280;9983;51.114;13.788;2022-12-18T20:36:58;100804.28;;;-1.50;79.34
19672;BME280;9983;51.114;13.788;2022-12-18T20:41:59;100796.75;;;-1.78;79.99
19672;BME280;9983;51.114;13.788;2022-12-18T20:46:59;100785.75;;;-1.47;79.56
19672;BME280;9983;51.114;13.788;2022-12-18T20:52:01;100779.75;;;-1.50;78.86
19672;BME280;9983;51.114;13.788;2022-12-18T20:57:02;100768.72;;;-1.38;78.14
19672;BME280;9983;51.114;13.788;2022-12-18T21:02:02;100753.63;;;-1.74;80.34
19672;BME280;9983;51.114;13.788;2022-12-18T21:07:02;100749.09;;;-1.31;78.55
19672;BME280;9983;51.114;13.788;2022-12-18T21:12:03;100779.25;;;-1.38;77.88
19672;BME280;9983;51.114;13.788;2022-12-18T21:17:22;100766.25;;;-1.62;78.70
19672;BME280;9983;51.114;13.788;2022-12-18T21:22:23;100774.25;;;-1.44;77.58
19672;BME280;9983;51.114;13.788;2022-12-18T21:27:23;100765.56;;;-1.46;77.67
19672;BME280;9983;51.114;13.788;2022-12-18T21:32:23;100765.75;;;-1.31;76.28
19672;BME280;9983;51.114;13.788;2022-12-18T21:37:24;100758.94;;;-1.16;75.40
19672;BME280;9983;51.114;13.788;2022-12-18T21:42:24;100760.50;;;-1.12;76.60
19672;BME280;9983;51.114;13.788;2022-12-18T21:47:50;100759.34;;;-1.25;76.28
19672;BME280;9983;51.114;13.788;2022-12-18T21:52:50;100754.09;;;-1.25;76.89
19672;BME280;9983;51.114;13.788;2022-12-18T21:57:52;100746.31;;;-1.47;77.13
19672;BME280;9983;51.114;13.788;2022-12-18T22:02:52;100751.63;;;-1.48;77.65
19672;BME280;9983;51.114;13.788;2022-12-18T22:07:53;100756.38;;;-1.57;78.03
19672;BME280;9983;51.114;13.788;2022-12-18T22:12:53;100733.50;;;-1.55;77.98
19672;BME280;9983;51.114;13.788;2022-12-18T22:17:53;100739.31;;;-1.87;79.41
19672;BME280;9983;51.114;13.788;2022-12-18T22:22:53;100737.31;;;-1.82;79.60
19672;BME280;9983;51.114;13.788;2022-12-18T22:27:54;100739.50;;;-1.71;78.55
19672;BME280;9983;51.114;13.788;2022-12-18T22:33:12;100726.22;;;-1.68;79.96
19672;BME280;9983;51.114;13.788;2022-12-18T22:38:13;100724.97;;;-1.80;79.39
19672;BME280;9983;51.114;13.788;2022-12-18T22:43:13;100714.28;;;-1.57;78.10
19672;BME280;9983;51.114;13.788;2022-12-18T22:48:13;100710.78;;;-1.76;79.39
19672;BME280;9983;51.114;13.788;2022-12-18T22:53:13;100708.69;;;-1.68;78.72
19672;BME280;9983;51.114;13.788;2022-12-18T22:58:14;100708.94;;;-1.74;79.40
19672;BME280;9983;51.114;13.788;2022-12-18T23:03:14;100691.03;;;-1.66;77.96
19672;BME280;9983;51.114;13.788;2022-12-18T23:08:14;100665.88;;;-1.71;78.41
19672;BME280;9983;51.114;13.788;2022-12-18T23:13:14;100683.00;;;-2.02;79.50
19672;BME280;9983;51.114;13.788;2022-12-18T23:18:15;100667.53;;;-1.89;79.11
19672;BME280;9983;51.114;13.788;2022-12-18T23:23:15;100656.75;;;-1.83;78.49
19672;BME280;9983;51.114;13.788;2022-12-18T23:28:15;100668.72;;;-1.76;78.56
19672;BME280;9983;51.114;13.788;2022-12-18T23:33:15;100634.91;;;-1.65;77.53
19672;BME280;9983;51.114;13.788;2022-12-18T23:38:16;100637.72;;;-1.88;78.09
19672;BME280;9983;51.114;13.788;2022-12-18T23:43:16;100639.19;;;-2.01;79.44
19672;BME280;9983;51.114;13.788;2022-12-18T23:48:17;100616.97;;;-1.94;78.94
19672;BME280;9983;51.114;13.788;2022-12-18T23:53:17;100612.81;;;-2.00;79.05
19672;BME280;9983;51.114;13.788;2022-12-18T23:58:20;100585.84;;;-2.23;80.52
